Time;durP1;ratioP1;P1;durP2;ratioP2;P2;SDS_P1;SDS_P2;PMS_P1;PMS_P2;Temp;Humidity;BMP_temperature;BMP_pressure;BME280_temperature;BME280_humidity;BME280_pressure;Samples;Min_cycle;Max_cycle;Signal;HPM_P1;HPM_P2
2021/12/24 00:01:48;;;;;;;6.88;4.63;;;;;;;-17.84;64.92;100725.06;5037069;28;20235;-69
2021/12/24 00:04:19;;;;;;;5.75;4.63;;;;;;;-17.70;65.84;100693.09;5037599;28;20072;-69
2021/12/24 00:06:51;;;;;;;9.13;3.33;;;;;;;-17.28;66.75;100713.13;5037864;28;20064;-70
2021/12/24 00:09:24;;;;;;;8.95;3.53;;;;;;;-17.01;67.84;100708.38;5037849;28;20570;-70
2021/12/24 00:11:59;;;;;;;19.38;5.28;;;;;;;-16.77;68.85;100703.97;5037052;28;20531;-69
2021/12/24 00:14:31;;;;;;;15.27;4.38;;;;;;;-16.46;69.46;100717.00;5037215;28;20057;-69
2021/12/24 00:17:04;;;;;;;11.32;3.15;;;;;;;-16.19;70.06;100708.78;5034209;28;20104;-69
2021/12/24 00:19:44;;;;;;;8.18;3.22;;;;;;;-15.98;70.65;100697.41;5038621;28;20076;-69
2021/12/24 00:22:44;;;;;;;5.78;3.15;;;;;;;-15.66;70.62;100713.81;5042318;28;20383;-69
2021/12/24 00:36:41;;;;;;;4.22;2.78;;;;;;;-14.38;70.05;100686.16;5025275;28;20084;-69
2021/12/24 00:39:12;;;;;;;5.63;3.08;;;;;;;-14.17;69.88;100688.84;5043347;28;20084;-70
2021/12/24 00:41:42;;;;;;;3.13;2.83;;;;;;;-13.92;69.90;100696.88;5056576;28;20081;-70
2021/12/24 00:44:15;;;;;;;4.25;2.97;;;;;;;-13.86;69.83;100691.50;5056602;28;20107;-71
2021/12/24 00:46:45;;;;;;;4.80;2.83;;;;;;;-13.63;69.70;100696.00;5037561;28;20061;-71
2021/12/24 00:49:16;;;;;;;4.32;2.60;;;;;;;-13.56;69.46;100679.06;5021423;28;20121;-70
2021/12/24 00:52:06;;;;;;;7.18;2.88;;;;;;;-13.28;69.06;100688.94;5035683;28;20313;-70
2021/12/24 00:57:25;;;;;;;6.28;3.00;;;;;;;-12.77;68.68;100656.28;5036494;22;20093;-69
2021/12/24 00:59:57;;;;;;;6.90;3.70;;;;;;;-12.41;67.90;100675.13;5056532;28;20053;-69
2021/12/24 01:02:28;;;;;;;6.20;3.83;;;;;;;-12.24;67.85;100649.69;5049249;28;20045;-69
2021/12/24 01:04:59;;;;;;;5.63;4.43;;;;;;;-12.10;66.73;100657.44;5045183;28;20053;-69
2021/12/24 01:07:30;;;;;;;9.18;3.70;;;;;;;-12.32;66.20;100600.34;5056474;28;20057;-69
2021/12/24 01:10:01;;;;;;;4.45;2.22;;;;;;;-11.91;66.17;100644.69;5058177;28;20061;-68
2021/12/24 01:12:32;;;;;;;3.97;2.45;;;;;;;-11.92;64.81;100618.59;5060304;28;20135;-69
2021/12/24 01:15:05;;;;;;;7.45;2.80;;;;;;;-11.78;63.74;100623.06;5060319;28;20112;-69
2021/12/24 01:17:42;;;;;;;8.65;4.68;;;;;;;-11.52;63.65;100641.84;5060020;28;20084;-68
2021/12/24 01:20:22;;;;;;;9.27;3.90;;;;;;;-11.62;62.59;100629.28;5050741;28;20113;-68
2021/12/24 01:25:48;;;;;;;9.90;4.15;;;;;;;-11.49;63.15;100652.16;5039786;28;20365;-69
2021/12/24 01:39:54;;;;;;;3.08;2.20;;;;;;;-10.91;61.89;100621.22;4976351;28;20082;-67
2021/12/24 01:42:45;;;;;;;10.02;4.65;;;;;;;-10.77;61.42;100603.72;5029768;28;20069;-67
2021/12/24 01:45:24;;;;;;;13.45;4.32;;;;;;;-10.77;61.78;100596.16;5037304;28;20052;-67
2021/12/24 01:47:59;;;;;;;13.13;4.32;;;;;;;-10.54;61.39;100607.94;5038776;28;20108;-68
2021/12/24 01:50:32;;;;;;;10.68;4.75;;;;;;;-10.55;61.35;100585.97;5038215;28;20057;-68
2021/12/24 01:53:04;;;;;;;9.85;4.95;;;;;;;-10.27;62.09;100573.66;5038807;28;20054;-69
2021/12/24 01:55:35;;;;;;;8.15;3.78;;;;;;;-10.17;61.71;100572.66;5038876;28;20109;-68
2021/12/24 01:58:07;;;;;;;9.35;4.78;;;;;;;-10.40;60.89;100535.69;5038701;28;20061;-69
2021/12/24 02:00:40;;;;;;;7.35;3.65;;;;;;;-10.33;60.03;100575.75;5080327;23;20085;-66
2021/12/24 02:03:14;;;;;;;6.57;3.72;;;;;;;-10.33;59.37;100558.97;5059052;28;20128;-66
2021/12/24 02:05:46;;;;;;;8.90;4.07;;;;;;;-10.27;59.09;100573.66;5059035;28;20106;-65
2021/12/24 02:08:18;;;;;;;9.05;4.00;;;;;;;-10.21;59.31;100559.81;5059084;28;20044;-65
2021/12/24 02:10:51;;;;;;;6.72;3.60;;;;;;;-10.70;60.12;100429.22;5058996;28;20057;-65
2021/12/24 02:13:22;;;;;;;4.65;2.50;;;;;;;-9.66;60.09;100564.41;5059006;28;20091;-65
2021/12/24 02:16:07;;;;;;;6.10;3.42;;;;;;;-9.57;59.58;100548.22;5059011;28;20567;-65
2021/12/24 02:29:54;;;;;;;4.82;2.33;;;;;;;-9.40;56.31;100551.03;5058503;28;20263;-66
2021/12/24 02:32:25;;;;;;;3.45;2.08;;;;;;;-9.38;55.83;100550.34;5058709;28;20155;-66
2021/12/24 02:34:56;;;;;;;12.38;2.83;;;;;;;-9.42;56.02;100538.25;5058680;28;20091;-66
2021/12/24 02:37:29;;;;;;;5.93;2.15;;;;;;;-9.38;56.00;100536.81;5058418;28;20250;-67
2021/12/24 02:40:00;;;;;;;3.08;2.08;;;;;;;-9.25;56.61;100526.75;5058512;28;20615;-66
2021/12/24 02:42:33;;;;;;;5.32;2.08;;;;;;;-9.22;55.90;100537.06;5058160;28;20060;-66
2021/12/24 02:45:05;;;;;;;4.22;1.95;;;;;;;-9.24;55.82;100523.41;5058199;28;20309;-66
2021/12/24 02:47:42;;;;;;;6.03;2.10;;;;;;;-9.14;55.36;100533.38;5058517;28;20056;-66
2021/12/24 02:55:49;;;;;;;5.60;2.20;;;;;;;-9.21;55.32;100513.53;5058115;28;20112;-66
2021/12/24 02:58:24;;;;;;;3.55;1.88;;;;;;;-9.13;55.09;100521.63;5057974;28;20068;-66
2021/12/24 03:03:25;;;;;;;3.20;1.92;;;;;;;-9.05;56.04;100519.59;5061838;22;20071;-72
2021/12/24 03:05:56;;;;;;;3.17;2.10;;;;;;;-8.91;55.51;100513.75;5037940;28;20048;-73
2021/12/24 03:08:28;;;;;;;3.65;2.10;;;;;;;-8.79;55.93;100499.34;5037996;28;20402;-73
2021/12/24 03:10:59;;;;;;;2.00;1.80;;;;;;;-8.73;55.24;100499.75;5037978;28;20061;-73
2021/12/24 03:13:30;;;;;;;5.82;2.20;;;;;;;-9.17;54.81;100413.34;5038086;28;20076;-72
2021/12/24 03:16:01;;;;;;;3.78;1.92;;;;;;;-8.73;54.64;100493.81;5037828;28;20404;-72
2021/12/24 03:18:37;;;;;;;5.63;3.38;;;;;;;-8.73;54.53;100482.03;5037780;28;20140;-71
2021/12/24 03:21:12;;;;;;;4.68;2.17;;;;;;;-8.67;53.96;100489.13;5037890;28;20081;-71
2021/12/24 03:24:33;;;;;;;2.75;2.03;;;;;;;-8.81;54.29;100475.63;5037656;28;20052;-73
2021/12/24 03:26:38;;;;;;;3.45;2.20;;;;;;;-8.94;53.75;100457.84;5037474;28;20049;-72
2021/12/24 03:29:11;;;;;;;3.70;2.05;;;;;;;-8.97;54.18;100442.47;5037330;28;20109;-71
2021/12/24 03:31:43;;;;;;;2.90;1.80;;;;;;;-8.73;54.67;100461.78;5037751;28;20055;-72
2021/12/24 03:34:19;;;;;;;4.45;2.30;;;;;;;-8.55;53.60;100471.31;5037543;28;20466;-72
2021/12/24 03:36:50;;;;;;;3.97;2.15;;;;;;;-8.46;53.82;100449.09;5037390;28;20315;-73
2021/12/24 03:39:23;;;;;;;2.40;1.80;;;;;;;-8.34;53.17;100459.94;5037499;28;20411;-74
2021/12/24 03:41:54;;;;;;;2.10;1.90;;;;;;;-8.41;53.20;100452.78;5037336;28;20215;-74
2021/12/24 03:44:32;;;;;;;3.20;1.95;;;;;;;-8.40;53.67;100454.53;5037127;28;20562;-74
2021/12/24 03:47:08;;;;;;;6.53;2.00;;;;;;;-8.39;55.16;100435.97;5037264;28;20046;-73
2021/12/24 03:49:45;;;;;;;4.53;1.77;;;;;;;-7.99;56.57;100468.81;5037263;28;20268;-74
2021/12/24 03:52:32;;;;;;;4.15;1.98;;;;;;;-7.86;57.35;100456.13;5037320;28;20064;-75
2021/12/24 03:55:04;;;;;;;6.03;2.13;;;;;;;-7.84;55.14;100467.25;5037355;28;20081;-75
2021/12/24 03:57:38;;;;;;;4.88;2.05;;;;;;;-8.13;54.89;100426.56;5037188;28;20053;-75
2021/12/24 04:00:14;;;;;;;3.95;2.00;;;;;;;-7.87;54.98;100468.69;5037194;28;20049;-74
2021/12/24 04:02:45;;;;;;;3.90;2.13;;;;;;;-8.15;54.66;100420.53;5037440;28;20087;-71
2021/12/24 04:05:16;;;;;;;2.38;1.90;;;;;;;-8.04;54.85;100437.25;5061630;22;20057;-65
2021/12/24 04:07:47;;;;;;;4.78;2.58;;;;;;;-7.89;54.79;100445.75;5037069;28;20053;-65
2021/12/24 04:10:29;;;;;;;3.00;1.80;;;;;;;-7.79;53.49;100471.69;5037183;28;20065;-65
2021/12/24 04:13:00;;;;;;;7.28;2.10;;;;;;;-7.74;53.79;100465.22;5037121;28;20355;-64
2021/12/24 04:15:30;;;;;;;3.08;2.10;;;;;;;-7.75;52.87;100471.09;5036902;28;20080;-64
2021/12/24 04:18:01;;;;;;;3.75;2.05;;;;;;;-7.95;52.79;100447.94;5037130;28;20079;-64
2021/12/24 04:26:08;;;;;;;5.80;2.95;;;;;;;-8.38;53.19;100458.00;5036726;28;20438;-63
2021/12/24 04:28:39;;;;;;;4.15;2.08;;;;;;;-8.35;54.00;100463.25;5036581;28;20041;-63
2021/12/24 04:31:10;;;;;;;3.72;2.00;;;;;;;-8.48;53.86;100445.59;5036714;28;20073;-65
2021/12/24 04:33:48;;;;;;;5.30;1.83;;;;;;;-8.34;54.55;100470.06;5036642;28;20065;-64
2021/12/24 04:36:39;;;;;;;8.23;2.65;;;;;;;-8.39;53.35;100471.44;5036907;28;20057;-63
2021/12/24 04:39:34;;;;;;;4.97;2.72;;;;;;;-8.26;54.84;100473.97;5036738;28;20081;-63
2021/12/24 05:01:13;;;;;;;3.60;1.88;;;;;;;-8.57;55.52;100477.94;5031036;28;20055;-63
2021/12/24 05:02:10;;;;;;;32.83;6.05;;;;;;;-8.82;54.48;100468.78;5040359;28;20051;-62
2021/12/24 05:04:53;;;;;;;56.47;8.35;;;;;;;-8.96;55.77;100459.41;5040146;28;20061;-63
2021/12/24 05:07:52;;;;;;;28.52;5.28;;;;;;;-9.30;55.17;100416.75;5064771;22;20051;-70
2021/12/24 05:10:25;;;;;;;58.53;8.07;;;;;;;-9.10;55.74;100456.00;5040118;28;20320;-69
2021/12/24 05:12:56;;;;;;;22.88;4.25;;;;;;;-9.15;54.72;100472.53;5040090;28;20116;-70
2021/12/24 05:15:29;;;;;;;6.20;1.90;;;;;;;-9.22;55.17;100466.19;5039970;28;20077;-69
2021/12/24 05:18:12;;;;;;;4.60;1.90;;;;;;;-9.25;56.00;100463.47;5039976;28;20270;-69
2021/12/24 05:23:30;;;;;;;2.63;1.88;;;;;;;-9.14;56.10;100470.09;5039885;28;20077;-69
2021/12/24 05:26:01;;;;;;;2.90;1.90;;;;;;;-9.22;55.20;100471.25;5039754;28;20088;-69
2021/12/24 05:28:32;;;;;;;2.55;1.73;;;;;;;-9.34;55.64;100475.50;5039748;28;20076;-70
2021/12/24 05:31:04;;;;;;;2.58;1.85;;;;;;;-9.32;56.71;100479.03;5039532;28;20041;-71
2021/12/24 05:33:35;;;;;;;6.55;2.20;;;;;;;-9.40;56.28;100470.06;5039551;28;20056;-69
2021/12/24 05:36:06;;;;;;;4.07;1.92;;;;;;;-9.58;57.00;100463.00;5039717;28;20056;-70
2021/12/24 05:38:37;;;;;;;7.18;2.83;;;;;;;-9.56;58.30;100479.16;5039635;28;20049;-70
2021/12/24 05:41:08;;;;;;;5.45;2.80;;;;;;;-9.75;58.46;100450.00;5039758;28;20083;-70
2021/12/24 05:43:38;;;;;;;5.22;2.00;;;;;;;-9.72;58.75;100472.97;5039461;28;20079;-69
2021/12/24 05:46:12;;;;;;;4.13;1.98;;;;;;;-9.87;59.64;100465.22;5039473;28;20068;-70
2021/12/24 05:48:43;;;;;;;3.28;1.88;;;;;;;-9.88;60.33;100476.09;5039453;28;20080;-70
2021/12/24 05:51:13;;;;;;;3.13;1.98;;;;;;;-9.90;60.31;100490.28;5039549;28;20092;-70
2021/12/24 05:53:44;;;;;;;6.22;2.20;;;;;;;-9.99;60.98;100485.47;5039369;28;20065;-70
2021/12/24 05:56:15;;;;;;;5.47;1.80;;;;;;;-10.00;61.11;100483.72;5038586;28;20085;-69
2021/12/24 05:58:46;;;;;;;3.70;1.98;;;;;;;-10.00;61.59;100489.66;5039278;28;20045;-69
2021/12/24 06:01:18;;;;;;;4.82;2.10;;;;;;;-10.28;60.60;100450.63;5039375;28;20116;-69
2021/12/24 06:03:49;;;;;;;6.30;2.58;;;;;;;-10.62;61.80;100392.75;5039428;28;20057;-70
2021/12/24 06:06:20;;;;;;;3.30;1.88;;;;;;;-10.17;61.81;100459.81;5039293;28;20255;-70
2021/12/24 06:08:51;;;;;;;3.35;1.95;;;;;;;-10.12;60.78;100488.81;5047763;22;20109;-69
2021/12/24 06:11:22;;;;;;;2.45;1.60;;;;;;;-10.16;60.73;100491.88;5039385;28;20049;-69
2021/12/24 06:13:55;;;;;;;4.05;2.40;;;;;;;-10.39;59.74;100461.66;5039031;28;20087;-68
2021/12/24 06:16:28;;;;;;;6.05;2.30;;;;;;;-10.55;60.00;100445.44;5038970;28;20064;-71
2021/12/24 06:19:01;;;;;;;5.03;2.25;;;;;;;-10.34;59.72;100491.50;5038799;28;20083;-68
2021/12/24 06:21:32;;;;;;;5.53;2.15;;;;;;;-10.35;59.21;100488.91;5038824;28;20109;-69
2021/12/24 06:24:03;;;;;;;2.08;1.83;;;;;;;-10.39;59.76;100489.44;5038799;28;20057;-71
2021/12/24 06:26:34;;;;;;;7.28;1.95;;;;;;;-10.68;59.41;100453.78;5038643;28;20303;-68
2021/12/24 06:29:05;;;;;;;3.90;1.50;;;;;;;-10.74;60.17;100452.47;5038731;28;20092;-69
2021/12/24 06:31:38;;;;;;;2.35;1.80;;;;;;;-10.51;60.85;100485.25;5038626;28;20116;-69
2021/12/24 06:34:13;;;;;;;5.13;2.17;;;;;;;-10.52;60.46;100491.09;5038563;28;20053;-69
2021/12/24 06:36:46;;;;;;;4.75;2.28;;;;;;;-10.54;60.87;100482.53;5038642;28;20059;-69
2021/12/24 06:39:18;;;;;;;3.83;2.13;;;;;;;-10.54;61.00;100487.56;5038538;28;20336;-69
2021/12/24 06:41:49;;;;;;;4.70;2.17;;;;;;;-10.62;60.70;100485.28;5038499;28;20084;-69
2021/12/24 06:44:20;;;;;;;3.65;2.00;;;;;;;-10.75;60.64;100481.03;5038561;28;20080;-69
2021/12/24 06:46:53;;;;;;;3.53;2.38;;;;;;;-10.83;60.56;100466.94;5038634;28;20064;-69
2021/12/24 06:49:24;;;;;;;5.95;2.40;;;;;;;-10.77;61.82;100477.50;5038618;28;20049;-68
2021/12/24 06:51:55;;;;;;;2.42;2.08;;;;;;;-11.42;61.92;100371.94;5038233;28;20117;-69
2021/12/24 06:54:26;;;;;;;5.47;2.70;;;;;;;-10.99;61.31;100455.75;5038324;28;20049;-68
2021/12/24 06:56:56;;;;;;;9.68;2.53;;;;;;;-10.84;61.95;100476.16;5038100;28;20064;-69
2021/12/24 06:59:27;;;;;;;4.53;2.20;;;;;;;-11.04;61.84;100472.22;5037954;28;20060;-68
2021/12/24 07:02:00;;;;;;;4.30;1.92;;;;;;;-11.13;61.78;100471.53;5037923;28;20053;-69
2021/12/24 07:04:30;;;;;;;6.85;2.55;;;;;;;-11.27;61.20;100442.78;5037918;28;20057;-69
2021/12/24 07:07:01;;;;;;;5.50;2.05;;;;;;;-11.14;62.14;100464.75;5037098;28;20068;-69
2021/12/24 07:09:32;;;;;;;8.35;2.50;;;;;;;-11.18;62.05;100462.75;5037762;28;20135;-69
2021/12/24 07:12:04;;;;;;;4.85;2.42;;;;;;;-11.45;61.67;100437.28;5046511;22;20107;-69
2021/12/24 07:14:37;;;;;;;5.70;1.90;;;;;;;-11.38;61.94;100453.72;5038029;28;20120;-69
2021/12/24 07:17:10;;;;;;;2.33;2.08;;;;;;;-11.60;61.29;100431.13;5043371;28;20053;-69
2021/12/24 07:19:41;;;;;;;107.43;19.70;;;;;;;-11.75;61.26;100441.81;5039502;28;20056;-69
2021/12/24 07:22:12;;;;;;;116.45;24.13;;;;;;;-11.94;61.67;100443.75;5027289;28;20045;-69
2021/12/24 07:24:43;;;;;;;78.38;18.65;;;;;;;-12.12;62.40;100427.25;5034149;28;20041;-69
2021/12/24 07:27:14;;;;;;;66.25;17.80;;;;;;;-12.28;62.60;100431.13;5033573;28;20418;-69
2021/12/24 07:29:45;;;;;;;84.70;19.30;;;;;;;-12.31;62.76;100435.88;5027057;28;20054;-69
2021/12/24 07:32:17;;;;;;;61.28;16.33;;;;;;;-12.66;65.02;100370.25;5032140;28;20053;-69
2021/12/24 07:34:48;;;;;;;60.53;17.67;;;;;;;-12.09;65.20;100442.59;5032431;28;20163;-69
2021/12/24 07:37:18;;;;;;;78.55;25.25;;;;;;;-12.21;65.01;100445.03;5032807;28;20662;-69
2021/12/24 07:39:49;;;;;;;80.13;25.17;;;;;;;-12.27;65.79;100427.81;5033808;28;20450;-70
2021/12/24 07:42:20;;;;;;;44.55;14.55;;;;;;;-12.37;65.46;100410.25;5032918;28;20055;-69
2021/12/24 07:44:51;;;;;;;34.42;12.10;;;;;;;-12.36;66.28;100424.59;5032802;28;20108;-69
2021/12/24 07:47:31;;;;;;;16.13;6.85;;;;;;;-12.41;66.51;100433.44;5033208;28;20327;-69
2021/12/24 07:50:04;;;;;;;14.27;6.25;;;;;;;-12.45;66.81;100431.47;5033528;28;20286;-69
2021/12/24 07:52:34;;;;;;;19.85;6.95;;;;;;;-12.47;68.29;100417.88;5026244;28;20057;-69
2021/12/24 07:55:06;;;;;;;50.08;12.57;;;;;;;-12.12;68.20;100412.13;5033687;28;20267;-69
2021/12/24 07:57:49;;;;;;;72.60;13.10;;;;;;;-12.01;67.87;100439.00;5033697;28;20406;-69
2021/12/24 08:00:23;;;;;;;69.65;14.52;;;;;;;-11.88;68.84;100429.09;5032453;28;20045;-70
2021/12/24 08:02:55;;;;;;;34.90;8.98;;;;;;;-12.05;68.52;100429.47;5028032;28;20053;-69
2021/12/24 08:05:31;;;;;;;46.50;11.20;;;;;;;-11.95;68.20;100426.88;5023691;28;20084;-69
2021/12/24 08:08:01;;;;;;;104.75;22.20;;;;;;;-11.96;67.96;100425.09;5033285;28;20055;-69
2021/12/24 08:10:33;;;;;;;70.18;17.70;;;;;;;-12.04;67.87;100416.09;5033166;28;20279;-70
2021/12/24 08:13:05;;;;;;;33.38;9.13;;;;;;;-11.98;68.02;100429.13;5028870;28;20072;-70
2021/12/24 08:15:36;;;;;;;8.98;4.95;;;;;;;-11.85;68.41;100429.28;5036739;22;20062;-74
2021/12/24 08:18:13;;;;;;;9.02;2.70;;;;;;;-11.80;68.44;100438.06;4968870;28;20348;-74
2021/12/24 08:20:44;;;;;;;167.65;27.42;;;;;;;-11.82;69.03;100419.44;5019764;28;20117;-73
2021/12/24 08:23:14;;;;;;;95.72;19.10;;;;;;;-11.92;68.77;100381.75;5019864;28;20085;-75
2021/12/24 08:25:45;;;;;;;158.73;30.35;;;;;;;-11.53;68.81;100424.13;5018759;28;20045;-73
2021/12/24 08:28:16;;;;;;;104.97;19.50;;;;;;;-12.13;68.42;100312.13;5019170;28;20073;-74
2021/12/24 08:30:47;;;;;;;67.40;15.43;;;;;;;-11.46;68.47;100417.84;5019790;28;20056;-74
2021/12/24 08:33:19;;;;;;;26.65;7.13;;;;;;;-11.36;68.42;100412.72;5019676;28;20062;-74
2021/12/24 08:35:50;;;;;;;9.02;3.83;;;;;;;-11.16;68.50;100430.94;5019861;28;20054;-74
2021/12/24 08:38:21;;;;;;;7.95;3.70;;;;;;;-11.15;68.24;100427.69;5019964;28;20045;-75
2021/12/24 08:40:52;;;;;;;5.40;2.80;;;;;;;-11.18;68.49;100430.84;5019265;28;20084;-73
2021/12/24 08:43:22;;;;;;;7.43;3.00;;;;;;;-11.18;68.78;100424.91;5020075;28;20114;-74
2021/12/24 08:45:53;;;;;;;9.30;2.20;;;;;;;-11.36;69.21;100402.63;5019985;28;20081;-72
2021/12/24 08:48:26;;;;;;;2.47;1.77;;;;;;;-11.60;69.54;100378.19;5020152;28;20058;-73
2021/12/24 08:50:57;;;;;;;2.35;2.03;;;;;;;-11.40;69.73;100410.75;5020694;28;20050;-74
2021/12/24 08:53:27;;;;;;;6.05;2.20;;;;;;;-11.42;69.95;100397.16;5020390;28;20057;-73
2021/12/24 08:55:58;;;;;;;3.70;2.72;;;;;;;-11.32;70.41;100399.56;5020066;28;20053;-71
2021/12/24 08:58:29;;;;;;;6.97;3.47;;;;;;;-11.23;70.40;100399.38;5019864;28;20048;-71
2021/12/24 09:01:00;;;;;;;7.72;2.78;;;;;;;-11.33;70.15;100372.59;5019911;28;20291;-73
2021/12/24 09:03:33;;;;;;;9.23;3.67;;;;;;;-11.18;70.10;100376.97;5019848;28;20116;-73
2021/12/24 09:06:04;;;;;;;4.65;2.38;;;;;;;-11.06;70.20;100382.91;5019804;28;20049;-73
2021/12/24 09:08:35;;;;;;;3.42;2.33;;;;;;;-11.10;70.19;100380.94;5019610;28;20054;-71
2021/12/24 09:11:06;;;;;;;9.70;3.20;;;;;;;-11.39;70.50;100329.28;5019602;28;20395;-74
2021/12/24 09:13:37;;;;;;;86.05;19.10;;;;;;;-11.74;70.38;100274.69;5019683;28;20132;-71
2021/12/24 09:18:43;;;;;;;8.15;3.10;;;;;;;-11.01;71.28;100381.56;5007849;23;20113;-72
2021/12/24 09:21:17;;;;;;;14.60;4.32;;;;;;;-10.91;70.85;100373.88;5000008;28;20284;-71
2021/12/24 09:23:49;;;;;;;18.38;4.57;;;;;;;-10.95;70.85;100361.84;5000249;28;20650;-73
2021/12/24 09:26:32;;;;;;;15.98;4.85;;;;;;;-10.88;71.16;100369.06;4999905;28;20101;-73
2021/12/24 09:29:04;;;;;;;27.35;9.25;;;;;;;-11.51;71.41;100250.22;5000020;28;20367;-74
2021/12/24 09:31:35;;;;;;;15.15;6.20;;;;;;;-10.94;71.31;100358.53;4996326;28;20050;-72
2021/12/24 09:34:08;;;;;;;7.07;2.83;;;;;;;-10.95;71.76;100351.75;4995618;28;20097;-72
2021/12/24 09:36:39;;;;;;;12.30;4.18;;;;;;;-10.78;71.70;100364.66;4996032;28;20133;-72
2021/12/24 09:39:10;;;;;;;5.10;2.20;;;;;;;-10.74;71.80;100366.63;4996185;28;20057;-72
2021/12/24 09:41:42;;;;;;;6.30;1.90;;;;;;;-10.74;71.90;100362.44;4996656;28;20366;-71
2021/12/24 09:44:13;;;;;;;3.60;2.10;;;;;;;-10.63;72.20;100355.66;4996457;28;20382;-71
2021/12/24 09:46:44;;;;;;;2.47;1.77;;;;;;;-10.55;72.12;100367.13;4995749;28;20053;-73
2021/12/24 09:49:17;;;;;;;3.72;2.08;;;;;;;-10.48;72.40;100366.78;4993595;28;20065;-72
2021/12/24 09:51:51;;;;;;;3.80;2.40;;;;;;;-10.63;72.30;100320.28;4993796;28;20085;-71
2021/12/24 09:54:22;;;;;;;5.50;2.10;;;;;;;-11.01;72.45;100240.25;4993833;28;20050;-70
2021/12/24 09:56:55;;;;;;;7.15;1.90;;;;;;;-10.60;72.38;100299.44;4993650;28;20284;-71
2021/12/24 09:59:27;;;;;;;2.25;1.70;;;;;;;-10.58;72.33;100306.34;4993991;28;20248;-71
2021/12/24 10:01:59;;;;;;;4.50;1.83;;;;;;;-10.40;72.37;100344.59;4993921;28;20311;-71
2021/12/24 10:04:34;;;;;;;3.70;2.00;;;;;;;-10.49;72.75;100318.69;4993693;28;20105;-70
2021/12/24 10:07:07;;;;;;;12.18;3.78;;;;;;;-10.38;72.73;100322.84;4993647;28;20054;-73
2021/12/24 10:09:39;;;;;;;4.35;2.00;;;;;;;-10.89;72.45;100225.97;4993289;28;20054;-73
2021/12/24 10:12:13;;;;;;;3.83;1.80;;;;;;;-10.29;72.01;100322.56;4993448;28;20089;-72
2021/12/24 10:14:49;;;;;;;3.45;1.85;;;;;;;-10.21;72.03;100326.44;4993215;28;20046;-73
2021/12/24 10:17:22;;;;;;;2.08;1.60;;;;;;;-10.07;72.62;100335.81;4993144;28;20054;-74
2021/12/24 10:19:56;;;;;;;15.27;6.45;;;;;;;-10.11;72.44;100327.94;5018420;23;20058;-65
2021/12/24 10:22:45;;;;;;;7.45;2.95;;;;;;;-10.22;72.52;100319.66;4995104;28;20046;-63
2021/12/24 10:25:16;;;;;;;2.35;1.63;;;;;;;-10.08;72.81;100329.03;4994914;28;20237;-65
2021/12/24 10:27:47;;;;;;;12.30;3.00;;;;;;;-10.08;72.42;100323.97;4995070;28;20096;-64
2021/12/24 10:30:21;;;;;;;34.33;7.40;;;;;;;-10.19;72.25;100299.63;4995101;28;20145;-65
2021/12/24 10:32:55;;;;;;;22.15;7.20;;;;;;;-10.00;72.70;100311.84;4994802;28;20080;-65
2021/12/24 10:35:29;;;;;;;9.45;2.95;;;;;;;-10.15;72.95;100276.31;4994833;28;20057;-65
2021/12/24 10:38:14;;;;;;;2.00;1.80;;;;;;;-9.86;72.98;100310.22;4994178;28;20272;-65
2021/12/24 10:40:52;;;;;;;5.13;1.90;;;;;;;-9.78;72.75;100330.19;4994527;28;20067;-66
2021/12/24 10:43:28;;;;;;;1.60;1.50;;;;;;;-9.71;73.06;100326.38;4993356;28;20105;-65
2021/12/24 10:46:11;;;;;;;4.18;2.45;;;;;;;-9.88;72.57;100301.63;4994828;28;20097;-65
2021/12/24 10:48:57;;;;;;;4.65;1.90;;;;;;;-9.98;72.73;100290.94;4994154;28;20061;-64
2021/12/24 10:51:53;;;;;;;7.90;2.72;;;;;;;-10.20;73.07;100262.50;4994408;28;20072;-65
2021/12/24 10:54:28;;;;;;;3.15;1.95;;;;;;;-9.63;73.56;100327.78;4994930;28;20054;-64
2021/12/24 10:57:17;;;;;;;3.60;1.63;;;;;;;-9.59;73.60;100304.41;4994603;28;20052;-65
2021/12/24 10:59:50;;;;;;;9.43;2.20;;;;;;;-9.59;73.54;100306.94;4994708;28;20057;-66
2021/12/24 11:02:23;;;;;;;4.35;3.35;;;;;;;-10.27;73.40;100204.78;4994132;28;20054;-66
2021/12/24 11:04:54;;;;;;;11.80;3.03;;;;;;;-9.61;73.82;100300.94;4994218;28;20125;-65
2021/12/24 11:07:39;;;;;;;7.35;2.13;;;;;;;-9.61;74.04;100293.34;4994538;28;20093;-64
2021/12/24 11:10:16;;;;;;;3.92;1.80;;;;;;;-9.66;74.45;100269.41;4993992;28;20054;-65
2021/12/24 11:12:48;;;;;;;5.38;1.98;;;;;;;-9.68;74.26;100265.91;4994344;28;20053;-65
2021/12/24 11:15:24;;;;;;;3.15;1.60;;;;;;;-9.60;74.58;100284.97;4994024;28;20062;-65
2021/12/24 11:17:58;;;;;;;3.45;1.60;;;;;;;-10.00;74.76;100221.72;4995100;28;20077;-65
2021/12/24 11:20:31;;;;;;;4.43;2.42;;;;;;;-9.82;75.22;100254.88;4995145;28;20058;-65
2021/12/24 11:23:07;;;;;;;3.47;1.70;;;;;;;-9.67;75.64;100272.69;5031996;23;20113;-69
2021/12/24 11:25:41;;;;;;;5.07;1.90;;;;;;;-9.66;75.74;100264.34;5013974;28;20124;-69
2021/12/24 11:28:13;;;;;;;3.42;1.85;;;;;;;-10.16;75.80;100162.50;5014689;28;20050;-69
2021/12/24 11:30:46;;;;;;;4.50;1.90;;;;;;;-9.60;76.38;100234.38;5014475;28;20054;-70
2021/12/24 11:33:21;;;;;;;2.13;1.65;;;;;;;-9.67;76.20;100227.19;5011148;28;20291;-69
2021/12/24 11:35:53;;;;;;;5.82;2.95;;;;;;;-9.34;76.49;100238.53;5014254;28;20062;-70
2021/12/24 11:38:29;;;;;;;3.40;1.98;;;;;;;-9.28;76.30;100222.88;5014189;28;20435;-70
2021/12/24 11:41:01;;;;;;;3.63;1.90;;;;;;;-9.15;76.22;100255.75;5014376;28;20050;-70
2021/12/24 11:43:33;;;;;;;3.13;1.65;;;;;;;-8.95;77.06;100243.44;5014130;28;20049;-70
2021/12/24 11:46:07;;;;;;;2.20;1.50;;;;;;;-8.57;77.34;100242.31;5014108;28;20438;-71
2021/12/24 11:48:39;;;;;;;3.33;1.70;;;;;;;-8.44;76.57;100229.59;5013918;28;20065;-71
2021/12/24 11:51:11;;;;;;;4.38;2.30;;;;;;;-8.42;76.38;100233.09;5013551;28;20304;-70
2021/12/24 11:53:45;;;;;;;4.60;1.60;;;;;;;-8.58;76.15;100210.19;5013633;28;20268;-70
2021/12/24 11:56:19;;;;;;;4.70;1.85;;;;;;;-8.62;75.76;100203.19;5014087;28;20054;-69
2021/12/24 11:58:51;;;;;;;4.00;1.98;;;;;;;-8.68;75.17;100219.75;5005096;28;20050;-69
2021/12/24 12:01:25;;;;;;;5.00;1.60;;;;;;;-8.76;74.61;100226.03;5013713;28;20068;-69
2021/12/24 12:03:57;;;;;;;2.25;1.65;;;;;;;-8.93;74.73;100216.56;5013878;28;20179;-69
2021/12/24 12:06:35;;;;;;;6.80;2.13;;;;;;;-8.80;75.16;100224.09;5012121;28;20485;-69
2021/12/24 12:09:10;;;;;;;3.35;1.67;;;;;;;-8.83;74.64;100228.13;5012718;28;20398;-69
2021/12/24 12:11:43;;;;;;;5.80;2.22;;;;;;;-9.04;74.68;100212.47;5012668;28;20091;-69
2021/12/24 12:14:28;;;;;;;6.38;2.90;;;;;;;-9.08;74.35;100220.66;5012901;28;20042;-69
2021/12/24 12:17:01;;;;;;;4.50;2.58;;;;;;;-9.12;74.86;100214.56;5013413;28;20061;-69
2021/12/24 12:19:43;;;;;;;4.78;2.50;;;;;;;-9.10;74.73;100207.94;5012770;28;20253;-70
2021/12/24 12:22:20;;;;;;;5.60;2.08;;;;;;;-9.14;74.52;100211.91;5012728;28;20042;-69
2021/12/24 12:24:58;;;;;;;17.38;4.95;;;;;;;-9.18;74.75;100199.88;5036868;22;20068;-71
2021/12/24 12:27:34;;;;;;;51.55;11.10;;;;;;;-9.63;74.52;100153.25;5014258;28;20041;-73
2021/12/24 12:30:24;;;;;;;38.00;8.63;;;;;;;-9.36;75.20;100193.66;5013146;28;20303;-74
2021/12/24 12:33:05;;;;;;;80.03;18.33;;;;;;;-9.56;75.15;100175.63;5013135;28;20121;-73
2021/12/24 12:35:41;;;;;;;52.38;13.00;;;;;;;-9.35;75.55;100176.06;5013097;28;20301;-71
2021/12/24 12:38:31;;;;;;;22.48;5.63;;;;;;;-9.26;75.73;100201.06;5012472;28;20076;-72
2021/12/24 12:41:32;;;;;;;7.93;2.58;;;;;;;-9.58;75.67;100136.72;5012052;28;20392;-72
2021/12/24 12:44:05;;;;;;;5.82;2.17;;;;;;;-9.30;76.00;100178.88;5012374;28;20273;-73
2021/12/24 12:46:39;;;;;;;2.72;1.85;;;;;;;-9.61;76.16;100106.19;5011565;28;20084;-73
2021/12/24 12:49:11;;;;;;;2.00;1.67;;;;;;;-9.10;75.58;100196.94;5011625;28;20734;-74
2021/12/24 12:51:57;;;;;;;2.58;1.75;;;;;;;-9.25;75.93;100177.50;5012685;28;20085;-73
2021/12/24 12:54:41;;;;;;;6.75;2.03;;;;;;;-9.17;75.78;100185.56;5012916;28;20189;-75
2021/12/24 12:57:18;;;;;;;14.45;3.03;;;;;;;-9.21;76.01;100194.63;5012035;28;20109;-73
2021/12/24 13:00:21;;;;;;;6.88;2.63;;;;;;;-9.21;75.82;100184.50;5010776;28;20050;-73
2021/12/24 13:03:10;;;;;;;2.05;1.60;;;;;;;-9.30;75.92;100178.88;5010764;28;20073;-73
2021/12/24 13:06:01;;;;;;;5.72;2.78;;;;;;;-9.07;76.31;100171.81;5010809;28;20046;-73
2021/12/24 13:08:32;;;;;;;;;;;;;;;-8.98;76.24;100172.38;5015518;28;20054;-72